createdAt,value
2022-08-13T00:01:00.879Z,16.50
2022-08-13T00:04:02.892Z,16.50
2022-08-13T00:07:06.161Z,16.60
2022-08-13T00:10:07.736Z,16.50
2022-08-13T00:13:06.078Z,16.30
2022-08-13T00:16:03.822Z,16.10
2022-08-13T00:19:00.669Z,16.10
2022-08-13T00:22:28.506Z,16.10
2022-08-13T00:25:18.026Z,16.30
2022-08-13T00:28:20.634Z,16.30
2022-08-13T00:31:17.613Z,16.20
2022-08-13T00:34:19.669Z,16.10
2022-08-13T00:37:23.791Z,16.20
2022-08-13T00:40:31.437Z,16.20
2022-08-13T00:43:35.779Z,16.30
2022-08-13T00:46:34.390Z,16.20
2022-08-13T00:49:32.799Z,16.20
2022-08-13T00:52:42.034Z,16.30
2022-08-13T00:55:39.113Z,16.30
2022-08-13T00:58:38.114Z,16.30
2022-08-13T01:01:37.070Z,16.30
2022-08-13T01:04:34.137Z,16.50
2022-08-13T01:07:48.176Z,16.40
2022-08-13T01:10:55.167Z,16.60
2022-08-13T01:13:53.575Z,16.60
2022-08-13T01:16:53.422Z,16.30
2022-08-13T01:19:53.488Z,16.40
2022-08-13T01:22:53.658Z,16.30
2022-08-13T01:26:01.128Z,16.20
2022-08-13T01:29:10.532Z,15.90
2022-08-13T01:32:09.071Z,16.10
2022-08-13T01:35:09.146Z,16.30
2022-08-13T01:38:06.712Z,16.20
2022-08-13T01:41:05.942Z,16.10
2022-08-13T01:44:16.916Z,16.10
2022-08-13T01:47:42.779Z,16.40
2022-08-13T01:50:52.897Z,16.20
2022-08-13T01:53:54.122Z,16.00
2022-08-13T01:56:51.489Z,16.00
2022-08-13T02:00:02.563Z,16.00
2022-08-13T02:03:02.299Z,16.30
2022-08-13T02:06:24.419Z,16.40
2022-08-13T02:09:58.235Z,16.20
2022-08-13T02:12:39.904Z,15.70
2022-08-13T02:15:42.488Z,15.60
2022-08-13T02:18:40.079Z,15.70
2022-08-13T02:21:45.191Z,15.80
2022-08-13T02:24:48.701Z,15.90
2022-08-13T02:27:52.892Z,16.00
2022-08-13T02:30:57.222Z,15.90
2022-08-13T02:33:55.918Z,15.70
2022-08-13T02:37:23.902Z,15.50
2022-08-13T02:40:35.174Z,15.70
2022-08-13T02:43:34.165Z,15.90
2022-08-13T02:46:49.310Z,15.80
2022-08-13T02:49:51.813Z,15.50
2022-08-13T02:52:58.848Z,15.40
2022-08-13T02:55:55.955Z,15.30
2022-08-13T02:58:54.096Z,15.40
2022-08-13T03:01:54.955Z,15.30
2022-08-13T03:04:52.632Z,15.30
2022-08-13T03:07:54.103Z,15.20
2022-08-13T03:10:52.576Z,15.10
2022-08-13T03:13:59.837Z,15.20
2022-08-13T03:16:57.011Z,15.10
2022-08-13T03:19:57.062Z,14.90
2022-08-13T03:22:59.465Z,14.80
2022-08-13T03:25:57.158Z,14.80
2022-08-13T03:28:55.989Z,14.90
2022-08-13T03:31:55.161Z,14.60
2022-08-13T03:34:52.921Z,14.80
2022-08-13T03:38:01.262Z,14.90
2022-08-13T03:41:01.572Z,14.70
2022-08-13T03:43:59.395Z,14.70
2022-08-13T03:47:29.514Z,14.60
2022-08-13T03:50:23.243Z,14.50
2022-08-13T03:53:24.563Z,14.80
2022-08-13T03:56:38.830Z,14.70
2022-08-13T03:59:47.471Z,14.70
2022-08-13T04:02:46.142Z,14.80
2022-08-13T04:05:54.028Z,14.80
2022-08-13T04:08:53.616Z,14.70
2022-08-13T04:11:55.688Z,14.60
2022-08-13T04:15:03.409Z,14.60
2022-08-13T04:18:00.267Z,14.80
2022-08-13T04:20:58.211Z,14.70
2022-08-13T04:23:56.751Z,14.50
2022-08-13T04:26:53.681Z,14.60
2022-08-13T04:29:52.505Z,14.40
2022-08-13T04:32:57.649Z,14.30
2022-08-13T04:36:08.472Z,14.30
2022-08-13T04:39:07.589Z,14.30
2022-08-13T04:42:21.292Z,14.50
2022-08-13T04:45:29.801Z,14.40
2022-08-13T04:48:32.808Z,14.20
2022-08-13T04:51:33.462Z,14.30
2022-08-13T04:54:35.757Z,14.20
2022-08-13T04:57:56.452Z,14.10
2022-08-13T05:00:52.538Z,14.40
2022-08-13T05:03:55.629Z,14.50
2022-08-13T05:06:53.240Z,14.70
2022-08-13T05:09:53.949Z,14.60
2022-08-13T05:12:53.635Z,14.70
2022-08-13T05:15:50.707Z,14.60
2022-08-13T05:18:53.208Z,14.70
2022-08-13T05:21:59.745Z,14.90
2022-08-13T05:26:18.152Z,15.00
2022-08-13T05:28:16.385Z,15.00
2022-08-13T05:31:27.152Z,15.00
2022-08-13T05:34:26.617Z,15.20
2022-08-13T05:38:15.842Z,15.20
2022-08-13T05:40:42.668Z,15.50
2022-08-13T05:43:53.286Z,15.50
2022-08-13T05:46:50.546Z,15.50
2022-08-13T05:49:57.507Z,15.50
2022-08-13T05:52:56.123Z,15.50
2022-08-13T05:56:12.788Z,15.70
2022-08-13T05:59:43.320Z,16.00
2022-08-13T06:03:02.885Z,15.90
2022-08-13T06:06:12.270Z,15.90
2022-08-13T06:09:10.269Z,16.00
2022-08-13T06:12:30.657Z,16.10
2022-08-13T06:15:27.575Z,16.10
2022-08-13T06:18:52.479Z,16.20
2022-08-13T06:22:05.678Z,16.20
2022-08-13T06:25:09.425Z,16.30
2022-08-13T06:28:11.627Z,16.40
2022-08-13T06:31:25.550Z,16.50
2022-08-13T06:34:34.620Z,16.50
2022-08-13T06:37:38.638Z,16.60
2022-08-13T06:40:44.048Z,16.70
2022-08-13T06:44:01.868Z,16.80
2022-08-13T06:47:05.678Z,16.90
2022-08-13T06:50:11.010Z,17.00
2022-08-13T06:54:25.687Z,17.20
2022-08-13T06:56:35.598Z,17.30
2022-08-13T07:00:04.336Z,17.50
2022-08-13T07:02:53.340Z,17.60
2022-08-13T07:05:57.139Z,17.80
2022-08-13T07:08:59.127Z,17.90
2022-08-13T07:11:56.681Z,18.10
2022-08-13T07:14:59.061Z,18.30
2022-08-13T07:17:57.428Z,18.50
2022-08-13T07:20:57.581Z,18.90
2022-08-13T07:24:41.235Z,19.00
2022-08-13T07:27:14.796Z,19.20
2022-08-13T07:30:15.796Z,19.40
2022-08-13T07:33:14.531Z,19.60
2022-08-13T07:36:15.809Z,19.60
2022-08-13T07:39:14.227Z,19.80
2022-08-13T07:42:16.416Z,19.90
2022-08-13T07:46:26.356Z,19.90
2022-08-13T07:48:50.918Z,19.80
2022-08-13T07:51:51.500Z,20.00
2022-08-13T07:54:49.375Z,20.20
2022-08-13T07:57:48.632Z,20.40
2022-08-13T08:00:46.423Z,20.40
2022-08-13T08:03:53.603Z,20.50
2022-08-13T08:06:51.700Z,20.60
2022-08-13T08:09:55.619Z,20.60
2022-08-13T08:13:00.784Z,20.90
2022-08-13T08:15:59.982Z,21.10
2022-08-13T08:20:06.848Z,21.30
2022-08-13T08:22:26.545Z,21.50
2022-08-13T08:25:25.840Z,21.70
2022-08-13T08:28:35.370Z,22.10
2022-08-13T08:31:58.635Z,22.00
2022-08-13T08:34:53.029Z,22.50
2022-08-13T08:38:28.811Z,22.70
2022-08-13T08:41:46.077Z,23.00
2022-08-13T08:44:49.379Z,23.00
2022-08-13T08:47:49.862Z,23.30
2022-08-13T08:50:46.785Z,23.20
2022-08-13T08:54:12.903Z,23.30
2022-08-13T08:57:04.671Z,23.50
2022-08-13T09:00:02.970Z,23.50
2022-08-13T09:02:59.980Z,23.60
2022-08-13T09:06:13.666Z,24.00
2022-08-13T09:09:16.150Z,24.10
2022-08-13T09:12:16.483Z,24.20
2022-08-13T09:15:18.393Z,24.40
2022-08-13T09:18:31.294Z,24.30
2022-08-13T09:21:28.421Z,24.70
2022-08-13T09:24:26.207Z,24.90
2022-08-13T09:27:23.246Z,24.90
2022-08-13T09:30:23.217Z,25.10
2022-08-13T09:33:49.795Z,25.30
2022-08-13T09:36:45.310Z,25.20
2022-08-13T09:39:55.403Z,25.00
2022-08-13T09:43:09.387Z,25.40
2022-08-13T09:46:10.566Z,25.70
2022-08-13T09:49:08.510Z,25.70
2022-08-13T09:52:19.706Z,25.70
2022-08-13T09:55:51.678Z,25.70
2022-08-13T09:58:38.297Z,25.80
2022-08-13T10:01:55.298Z,26.00
2022-08-13T10:04:56.661Z,26.00
2022-08-13T10:07:54.789Z,26.20
2022-08-13T10:10:52.404Z,26.50
2022-08-13T10:13:51.537Z,26.40
2022-08-13T10:16:49.309Z,26.50
2022-08-13T10:19:49.845Z,26.60
2022-08-13T10:22:47.951Z,26.90
2022-08-13T10:25:50.148Z,27.20
2022-08-13T10:28:50.585Z,27.20
2022-08-13T10:31:51.787Z,27.00
2022-08-13T10:34:56.444Z,27.10
2022-08-13T10:38:00.516Z,27.30
2022-08-13T10:41:08.571Z,27.50
2022-08-13T10:44:07.694Z,27.70
2022-08-13T10:47:05.955Z,27.70
2022-08-13T10:50:02.850Z,27.90
2022-08-13T10:53:00.606Z,27.90
2022-08-13T10:55:58.053Z,27.90
2022-08-13T10:59:02.012Z,28.10
2022-08-13T11:01:58.855Z,28.10
2022-08-13T11:04:55.847Z,28.10
2022-08-13T11:07:57.411Z,28.10
2022-08-13T11:11:30.429Z,28.30
2022-08-13T11:14:14.214Z,28.60
2022-08-13T11:17:52.009Z,28.80
2022-08-13T11:21:03.274Z,29.10
2022-08-13T11:24:20.735Z,28.90
2022-08-13T11:27:18.640Z,29.10
2022-08-13T11:30:20.078Z,29.00
2022-08-13T11:33:17.719Z,29.20
2022-08-13T11:36:14.850Z,28.60
2022-08-13T11:39:12.636Z,28.70
2022-08-13T11:42:13.342Z,28.70
2022-08-13T11:45:10.977Z,28.60
2022-08-13T11:48:08.639Z,28.20
2022-08-13T11:51:07.154Z,28.50
2022-08-13T11:54:28.705Z,28.70
2022-08-13T11:57:21.014Z,28.40
2022-08-13T12:00:29.462Z,27.60
2022-08-13T12:03:40.665Z,28.60
2022-08-13T12:06:48.320Z,29.40
2022-08-13T12:09:50.842Z,29.60
2022-08-13T12:12:53.063Z,29.10
2022-08-13T12:16:12.045Z,28.80
2022-08-13T12:19:23.941Z,28.80
2022-08-13T12:22:22.560Z,29.10
2022-08-13T12:25:32.782Z,29.50
2022-08-13T12:28:43.356Z,29.10
2022-08-13T12:31:42.178Z,29.60
2022-08-13T12:34:41.646Z,29.80
2022-08-13T12:37:44.433Z,29.80
2022-08-13T12:40:45.413Z,30.00
2022-08-13T12:44:05.213Z,30.30
2022-08-13T12:47:03.072Z,30.50
2022-08-13T12:50:06.625Z,30.10
2022-08-13T12:53:04.472Z,30.60
2022-08-13T12:56:01.357Z,30.80
2022-08-13T12:59:00.239Z,30.30
2022-08-13T13:01:59.869Z,30.30
2022-08-13T13:05:15.587Z,30.00
2022-08-13T13:08:35.506Z,30.50
2022-08-13T13:11:36.713Z,31.30
2022-08-13T13:14:48.606Z,31.10
2022-08-13T13:18:11.427Z,30.40
2022-08-13T13:21:06.141Z,29.50
2022-08-13T13:24:17.253Z,29.00
2022-08-13T13:27:16.071Z,29.30
2022-08-13T13:30:19.195Z,29.30
2022-08-13T13:33:24.672Z,29.60
2022-08-13T13:36:22.416Z,29.70
2022-08-13T13:39:24.543Z,29.90
2022-08-13T13:42:29.395Z,29.40
2022-08-13T13:45:28.352Z,29.40
2022-08-13T13:48:34.437Z,29.80
2022-08-13T13:51:43.074Z,30.10
2022-08-13T13:54:53.508Z,30.20
2022-08-13T13:57:54.643Z,29.70
2022-08-13T14:00:58.382Z,29.70
2022-08-13T14:04:01.490Z,29.10
2022-08-13T14:07:25.996Z,29.20
2022-08-13T14:10:24.089Z,29.10
2022-08-13T14:13:32.769Z,29.20
2022-08-13T14:16:39.403Z,29.90
2022-08-13T14:19:56.595Z,29.90
2022-08-13T14:22:53.954Z,29.80
2022-08-13T14:25:55.742Z,29.50
2022-08-13T14:28:53.639Z,30.20
2022-08-13T14:31:54.874Z,29.80
2022-08-13T14:34:56.270Z,29.60
2022-08-13T14:37:53.607Z,29.90
2022-08-13T14:40:57.606Z,29.10
2022-08-13T14:44:01.801Z,29.10
2022-08-13T14:47:00.103Z,29.10
2022-08-13T14:50:08.739Z,29.60
2022-08-13T14:53:08.475Z,29.50
2022-08-13T14:56:05.725Z,29.90
2022-08-13T14:59:02.655Z,29.90
2022-08-13T15:02:01.255Z,29.20
2022-08-13T15:04:59.915Z,28.90
2022-08-13T15:08:16.860Z,28.70
2022-08-13T15:11:20.012Z,28.50
2022-08-13T15:14:16.996Z,28.80
2022-08-13T15:17:14.294Z,29.80
2022-08-13T15:20:17.020Z,29.90
2022-08-13T15:23:14.602Z,29.70
2022-08-13T15:26:12.938Z,28.90
2022-08-13T15:29:10.516Z,29.40
2022-08-13T15:32:09.455Z,29.00
2022-08-13T15:35:09.357Z,27.90
2022-08-13T15:38:20.871Z,28.10
2022-08-13T15:41:18.601Z,29.10
2022-08-13T15:44:18.577Z,29.20
2022-08-13T15:47:48.968Z,29.20
2022-08-13T15:50:46.373Z,29.30
2022-08-13T15:53:43.228Z,29.20
2022-08-13T15:56:41.008Z,29.60
2022-08-13T15:59:46.712Z,29.30
2022-08-13T16:02:58.048Z,28.80
2022-08-13T16:05:56.726Z,29.50
2022-08-13T16:08:53.979Z,29.50
2022-08-13T16:11:50.847Z,28.80
2022-08-13T16:14:50.459Z,29.30
2022-08-13T16:17:59.394Z,28.70
2022-08-13T16:20:56.919Z,28.90
2022-08-13T16:24:01.514Z,29.40
2022-08-13T16:27:01.748Z,29.40
2022-08-13T16:30:05.268Z,27.90
2022-08-13T16:33:07.561Z,27.90
2022-08-13T16:36:06.207Z,28.50
2022-08-13T16:39:07.118Z,28.80
2022-08-13T16:42:07.749Z,28.90
2022-08-13T16:45:06.534Z,29.00
2022-08-13T16:48:09.033Z,29.20
2022-08-13T16:51:08.227Z,29.40
2022-08-13T16:54:35.158Z,29.00
2022-08-13T16:57:22.188Z,28.70
2022-08-13T17:00:25.263Z,28.60
2022-08-13T17:04:00.750Z,28.10
2022-08-13T17:07:17.270Z,28.30
2022-08-13T17:10:14.729Z,27.90
2022-08-13T17:13:14.780Z,27.90
2022-08-13T17:16:17.749Z,27.50
2022-08-13T17:19:17.854Z,27.30
2022-08-13T17:22:14.818Z,27.70
2022-08-13T17:25:11.790Z,27.30
2022-08-13T17:28:11.574Z,27.50
2022-08-13T17:31:15.415Z,27.60
2022-08-13T17:34:12.922Z,27.70
2022-08-13T17:37:18.008Z,27.60
2022-08-13T17:40:20.165Z,27.00
2022-08-13T17:43:59.118Z,27.80
2022-08-13T17:46:50.236Z,27.00
2022-08-13T17:49:50.347Z,26.40
2022-08-13T17:52:48.316Z,25.60
2022-08-13T17:55:52.604Z,26.30
2022-08-13T17:58:50.125Z,26.90
2022-08-13T18:01:49.755Z,26.60
2022-08-13T18:04:47.041Z,26.10
2022-08-13T18:07:48.561Z,25.70
2022-08-13T18:10:47.489Z,26.40
2022-08-13T18:14:02.464Z,25.70
2022-08-13T18:17:36.244Z,25.90
2022-08-13T18:20:23.007Z,24.90
2022-08-13T18:23:34.935Z,24.60
2022-08-13T18:26:32.438Z,24.00
2022-08-13T18:30:00.336Z,23.70
2022-08-13T18:32:58.184Z,23.80
2022-08-13T18:36:03.953Z,23.70
2022-08-13T18:39:01.258Z,23.40
2022-08-13T18:41:58.267Z,23.40
2022-08-13T18:44:55.528Z,23.10
2022-08-13T18:47:52.749Z,22.90
2022-08-13T18:50:53.225Z,22.70
2022-08-13T18:53:50.764Z,22.80
2022-08-13T18:56:47.671Z,22.60
2022-08-13T18:59:59.215Z,22.50
2022-08-13T19:02:58.062Z,22.50
2022-08-13T19:05:55.471Z,22.60
2022-08-13T19:08:53.585Z,22.40
2022-08-13T19:11:50.641Z,22.30
2022-08-13T19:14:51.203Z,22.20
2022-08-13T19:17:55.616Z,22.10
2022-08-13T19:20:58.066Z,22.20
2022-08-13T19:24:01.339Z,22.00
2022-08-13T19:27:00.025Z,22.00
2022-08-13T19:29:57.119Z,21.80
2022-08-13T19:32:56.085Z,21.70
2022-08-13T19:36:17.301Z,21.70
2022-08-13T19:39:30.878Z,21.50
2022-08-13T19:42:34.005Z,21.40
2022-08-13T19:45:31.993Z,21.20
2022-08-13T19:48:48.761Z,21.10
2022-08-13T19:51:49.779Z,21.00
2022-08-13T19:54:59.277Z,20.80
2022-08-13T19:58:01.361Z,20.80
2022-08-13T20:01:04.114Z,20.80
2022-08-13T20:04:14.467Z,20.70
2022-08-13T20:07:11.827Z,20.60
2022-08-13T20:10:09.670Z,20.50
2022-08-13T20:13:15.124Z,20.50
2022-08-13T20:16:16.401Z,20.50
2022-08-13T20:19:15.964Z,20.50
2022-08-13T20:22:13.357Z,20.40
2022-08-13T20:25:49.515Z,20.40
2022-08-13T20:28:31.863Z,20.40
2022-08-13T20:31:30.334Z,20.30
2022-08-13T20:34:38.866Z,20.30
2022-08-13T20:37:48.016Z,20.20
2022-08-13T20:40:46.447Z,20.20
2022-08-13T20:43:57.565Z,20.10
2022-08-13T20:46:56.059Z,19.90
2022-08-13T20:49:54.260Z,20.00
2022-08-13T20:52:53.074Z,19.90
2022-08-13T20:55:51.580Z,19.80
2022-08-13T21:00:45.823Z,19.80
2022-08-13T21:02:08.236Z,19.70
2022-08-13T21:05:05.792Z,19.60
2022-08-13T21:08:06.481Z,19.60
2022-08-13T21:11:05.491Z,19.60
2022-08-13T21:14:02.442Z,19.50
2022-08-13T21:17:02.283Z,19.40
2022-08-13T21:20:02.863Z,19.40
2022-08-13T21:23:00.025Z,19.40
2022-08-13T21:26:03.367Z,19.40
2022-08-13T21:29:31.203Z,19.40
2022-08-13T21:32:19.614Z,19.30
2022-08-13T21:35:18.384Z,19.10
2022-08-13T21:38:15.429Z,19.20
2022-08-13T21:41:12.996Z,19.20
2022-08-13T21:44:10.266Z,19.20
2022-08-13T21:47:14.655Z,19.20
2022-08-13T21:50:18.893Z,19.00
2022-08-13T21:53:28.197Z,18.90
2022-08-13T21:56:38.124Z,18.90
2022-08-13T21:59:39.889Z,18.90
2022-08-13T22:02:37.406Z,18.90
2022-08-13T22:05:58.030Z,18.80
2022-08-13T22:08:53.684Z,18.80
2022-08-13T22:11:52.342Z,18.80
2022-08-13T22:14:51.311Z,18.70
2022-08-13T22:17:48.159Z,18.70
2022-08-13T22:20:47.494Z,18.70
2022-08-13T22:23:45.327Z,18.70
2022-08-13T22:26:42.938Z,18.60
2022-08-13T22:29:58.346Z,18.40
2022-08-13T22:32:55.955Z,18.40
2022-08-13T22:35:56.093Z,18.30
2022-08-13T22:38:54.156Z,18.30
2022-08-13T22:41:51.040Z,18.40
2022-08-13T22:44:51.418Z,18.30
2022-08-13T22:47:48.698Z,18.30
2022-08-13T22:50:47.152Z,18.40
2022-08-13T22:53:43.999Z,18.40
2022-08-13T22:56:41.345Z,18.20
2022-08-13T22:59:38.237Z,18.40
2022-08-13T23:02:35.145Z,18.30
2022-08-13T23:05:37.199Z,18.20
2022-08-13T23:08:35.609Z,18.30
2022-08-13T23:11:33.705Z,18.20
2022-08-13T23:14:31.922Z,17.90
2022-08-13T23:17:38.917Z,18.00
2022-08-13T23:20:42.692Z,18.40
2022-08-13T23:23:39.535Z,18.90
2022-08-13T23:26:36.590Z,18.90
2022-08-13T23:29:33.433Z,18.60
2022-08-13T23:32:30.316Z,18.50
2022-08-13T23:35:27.387Z,18.80
2022-08-13T23:38:25.125Z,18.80
2022-08-13T23:41:23.248Z,18.60
2022-08-13T23:44:22.274Z,18.50
2022-08-13T23:47:19.554Z,18.30
2022-08-13T23:50:18.269Z,18.20
2022-08-13T23:53:28.458Z,18.00
2022-08-13T23:56:38.359Z,17.90
2022-08-13T23:59:36.280Z,17.90
